Time;durP1;ratioP1;P1;durP2;ratioP2;P2;SDS_P1;SDS_P2;PMS_P1;PMS_P2;Temp;Humidity;BMP_temperature;BMP_pressure;BME280_temperature;BME280_humidity;BME280_pressure;Samples;Min_cycle;Max_cycle;Signal;HPM_P1;HPM_P2
2023/06/17 00:02:17;;;;;;;2.93;2.27;;;21.50;46.00;;;;;;5036906;28;20036;-63
2023/06/17 00:04:43;;;;;;;3.90;2.20;;;21.40;46.20;;;;;;5020714;28;20021;-62
2023/06/17 00:07:10;;;;;;;2.55;1.95;;;21.40;46.30;;;;;;5051360;28;20236;-63
2023/06/17 00:09:35;;;;;;;3.43;2.17;;;21.30;46.30;;;;;;5031817;28;20079;-63
2023/06/17 00:12:02;;;;;;;3.38;2.03;;;21.30;46.50;;;;;;5037725;28;20059;-63
2023/06/17 00:14:28;;;;;;;2.90;2.00;;;21.20;46.60;;;;;;5037369;28;20036;-63
2023/06/17 00:16:54;;;;;;;4.00;2.28;;;21.20;46.80;;;;;;5044692;28;20248;-62
2023/06/17 00:19:20;;;;;;;2.83;2.17;;;21.10;46.80;;;;;;5043523;28;20033;-63
2023/06/17 00:21:49;;;;;;;3.63;2.30;;;21.00;47.00;;;;;;5021038;28;20044;-63
2023/06/17 00:24:19;;;;;;;3.28;2.20;;;21.00;47.30;;;;;;5038151;28;20551;-63
2023/06/17 00:26:45;;;;;;;3.38;2.20;;;20.90;47.70;;;;;;5036499;28;20095;-62
2023/06/17 00:29:11;;;;;;;2.92;2.20;;;20.80;47.30;;;;;;5042189;28;20392;-63
2023/06/17 00:31:37;;;;;;;3.83;2.17;;;20.80;47.50;;;;;;5038723;28;20052;-63
2023/06/17 00:34:03;;;;;;;3.15;2.20;;;20.70;47.60;;;;;;5055931;28;20559;-63
2023/06/17 00:36:29;;;;;;;3.42;2.22;;;20.70;47.70;;;;;;5023733;28;20025;-64
2023/06/17 00:38:55;;;;;;;3.40;2.00;;;20.60;47.90;;;;;;5046238;28;20041;-63
2023/06/17 00:41:21;;;;;;;3.00;2.13;;;20.60;48.10;;;;;;5030897;28;20036;-62
2023/06/17 00:43:47;;;;;;;3.65;2.00;;;20.50;48.20;;;;;;5038826;28;20551;-62
2023/06/17 00:46:30;;;;;;;2.90;2.07;;;20.40;48.10;;;;;;5049434;28;20111;-62
2023/06/17 00:48:57;;;;;;;2.80;2.05;;;20.40;49.10;;;;;;5037970;28;20033;-62
2023/06/17 00:51:22;;;;;;;3.13;2.28;;;20.40;48.40;;;;;;5028000;28;20078;-63
2023/06/17 00:53:48;;;;;;;2.60;2.03;;;20.30;48.50;;;;;;5045475;28;20028;-63
2023/06/17 00:56:17;;;;;;;4.30;2.47;;;20.20;48.70;;;;;;5040360;28;20515;-63
2023/06/17 00:58:43;;;;;;;3.65;2.20;;;20.20;48.80;;;;;;5036989;28;20422;-63
2023/06/17 01:01:09;;;;;;;3.33;2.30;;;20.10;49.00;;;;;;5042800;28;20456;-63
2023/06/17 01:03:35;;;;;;;3.78;2.30;;;20.10;49.00;;;;;;5039558;28;20113;-63
2023/06/17 01:06:07;;;;;;;3.77;2.27;;;20.00;49.10;;;;;;5041144;28;20585;-63
2023/06/17 01:08:57;;;;;;;3.78;2.25;;;20.00;49.60;;;;;;5019812;28;20402;-63
2023/06/17 01:11:23;;;;;;;3.55;2.10;;;19.90;50.30;;;;;;5037853;28;20081;-63
2023/06/17 01:13:54;;;;;;;3.90;2.33;;;19.90;49.60;;;;;;5036183;28;20729;-62
2023/06/17 01:16:21;;;;;;;3.50;2.22;;;19.80;49.90;;;;;;5038600;28;20025;-62
2023/06/17 01:18:48;;;;;;;4.30;2.27;;;19.80;49.70;;;;;;5044356;28;20078;-63
2023/06/17 01:21:17;;;;;;;3.70;2.20;;;19.70;49.90;;;;;;5035893;28;20132;-63
2023/06/17 01:23:44;;;;;;;3.00;2.08;;;19.70;50.10;;;;;;5025551;28;20037;-63
2023/06/17 01:26:11;;;;;;;2.97;2.08;;;19.60;50.10;;;;;;5033445;28;20032;-63
2023/06/17 01:28:40;;;;;;;3.22;2.10;;;19.60;50.30;;;;;;5039769;28;20036;-62
2023/06/17 01:31:08;;;;;;;3.53;2.20;;;19.50;50.30;;;;;;5035298;28;20045;-63
2023/06/17 01:33:34;;;;;;;3.83;2.35;;;19.40;50.40;;;;;;5046118;28;20033;-63
2023/06/17 01:36:10;;;;;;;3.97;2.35;;;19.40;50.60;;;;;;5038084;28;20021;-64
2023/06/17 01:38:44;;;;;;;3.58;2.20;;;19.40;50.70;;;;;;5024234;28;20490;-63
2023/06/17 01:41:14;;;;;;;3.00;2.15;;;19.30;52.40;;;;;;5038403;28;20315;-62
2023/06/17 01:43:42;;;;;;;3.47;2.27;;;19.30;50.90;;;;;;5044881;28;20067;-62
2023/06/17 01:46:11;;;;;;;3.90;2.13;;;19.20;51.00;;;;;;5029968;28;20021;-63
2023/06/17 01:48:38;;;;;;;4.63;2.35;;;19.20;51.10;;;;;;5047783;28;20010;-62
2023/06/17 01:51:05;;;;;;;3.17;2.30;;;19.10;51.00;;;;;;5033861;28;20043;-63
2023/06/17 01:53:30;;;;;;;4.43;2.30;;;19.10;51.20;;;;;;5020847;28;20033;-62
2023/06/17 01:55:56;;;;;;;2.87;2.03;;;19.10;51.30;;;;;;5038555;28;20129;-63
2023/06/17 01:58:22;;;;;;;3.70;2.30;;;19.00;51.50;;;;;;5039967;28;20028;-62
2023/06/17 02:00:48;;;;;;;3.17;2.27;;;19.00;51.60;;;;;;5038597;28;20029;-63
2023/06/17 02:03:13;;;;;;;3.30;2.28;;;18.90;51.60;;;;;;5037768;28;20291;-62
2023/06/17 02:05:39;;;;;;;3.17;2.17;;;18.90;51.80;;;;;;5033037;28;20024;-63
2023/06/17 02:08:05;;;;;;;2.85;2.10;;;18.80;51.90;;;;;;5045165;28;20024;-62
2023/06/17 02:10:32;;;;;;;2.90;2.20;;;18.70;51.90;;;;;;5004971;28;20025;-62
2023/06/17 02:13:00;;;;;;;3.25;2.40;;;18.70;52.00;;;;;;5035531;28;20036;-63
2023/06/17 02:15:26;;;;;;;3.23;2.03;;;18.60;52.10;;;;;;5035049;28;20301;-63
2023/06/17 02:17:53;;;;;;;3.17;2.20;;;18.60;52.20;;;;;;5038887;28;20059;-63
2023/06/17 02:20:19;;;;;;;3.20;2.38;;;18.50;52.20;;;;;;5038950;28;20035;-63
2023/06/17 02:22:44;;;;;;;3.30;2.07;;;18.50;52.50;;;;;;5038717;28;20033;-62
2023/06/17 02:25:10;;;;;;;3.90;2.13;;;18.50;52.60;;;;;;5016664;28;20558;-64
2023/06/17 02:27:36;;;;;;;3.47;2.23;;;18.40;52.60;;;;;;5029027;28;20528;-62
2023/06/17 02:30:01;;;;;;;2.75;2.10;;;18.40;52.70;;;;;;5043834;28;20035;-62
2023/06/17 02:32:28;;;;;;;3.40;2.20;;;18.40;53.50;;;;;;5035679;28;20038;-62
2023/06/17 02:34:54;;;;;;;4.53;2.47;;;18.40;52.80;;;;;;5054513;28;20483;-63
2023/06/17 02:37:20;;;;;;;3.30;2.13;;;18.30;52.90;;;;;;5035999;28;20046;-63
2023/06/17 02:39:45;;;;;;;3.47;2.40;;;18.30;53.00;;;;;;5005151;28;20033;-63
2023/06/17 02:42:11;;;;;;;3.37;2.30;;;18.30;53.00;;;;;;5043662;28;20028;-63
2023/06/17 02:44:37;;;;;;;3.80;2.40;;;18.20;53.10;;;;;;5035061;28;20059;-63
2023/06/17 02:47:03;;;;;;;4.77;2.60;;;18.20;53.10;;;;;;5040871;28;20538;-63
2023/06/17 02:49:29;;;;;;;3.45;2.47;;;18.20;53.20;;;;;;5034137;28;20024;-62
2023/06/17 02:51:55;;;;;;;3.35;2.30;;;18.20;53.30;;;;;;5036037;28;20040;-62
2023/06/17 02:54:20;;;;;;;3.90;2.38;;;18.10;53.30;;;;;;5019734;28;20037;-63
2023/06/17 02:56:46;;;;;;;4.93;2.50;;;18.10;53.40;;;;;;5027530;28;20060;-63
2023/06/17 02:59:15;;;;;;;4.20;2.47;;;18.10;53.40;;;;;;5037194;28;20025;-63
2023/06/17 03:01:41;;;;;;;4.13;2.80;;;18.10;53.80;;;;;;5042753;28;20032;-63
2023/06/17 03:04:08;;;;;;;3.90;2.40;;;18.10;53.50;;;;;;5046608;28;20025;-63
2023/06/17 03:06:35;;;;;;;3.92;2.50;;;18.00;53.60;;;;;;5023847;28;20422;-63
2023/06/17 03:09:03;;;;;;;5.03;2.70;;;18.00;53.60;;;;;;5045161;28;20187;-62
2023/06/17 03:11:29;;;;;;;4.57;2.38;;;18.00;53.60;;;;;;5019757;28;20622;-63
2023/06/17 03:13:55;;;;;;;6.60;2.60;;;18.00;53.50;;;;;;5033948;28;20090;-62
2023/06/17 03:16:24;;;;;;;3.80;2.47;;;18.00;53.60;;;;;;5043904;28;20032;-63
2023/06/17 03:18:50;;;;;;;4.75;2.60;;;18.00;53.50;;;;;;5041883;28;20337;-62
2023/06/17 03:21:16;;;;;;;5.10;2.50;;;18.00;53.60;;;;;;5036634;28;20023;-63
2023/06/17 03:23:42;;;;;;;2.85;2.17;;;17.90;53.60;;;;;;5033179;28;20056;-63
2023/06/17 03:26:11;;;;;;;3.30;2.50;;;17.90;53.60;;;;;;5019173;28;20457;-63
2023/06/17 03:28:36;;;;;;;3.30;2.40;;;17.90;53.60;;;;;;5043759;28;20109;-62
2023/06/17 03:31:02;;;;;;;4.22;2.28;;;17.90;53.60;;;;;;5034797;28;20029;-63
2023/06/17 03:33:29;;;;;;;3.28;2.40;;;17.90;53.70;;;;;;5032385;28;20118;-63
2023/06/17 03:35:55;;;;;;;3.30;2.30;;;17.90;53.80;;;;;;5038601;28;20392;-62
2023/06/17 03:38:21;;;;;;;5.70;2.70;;;17.90;53.90;;;;;;5040421;28;20691;-63
2023/06/17 03:40:47;;;;;;;5.43;2.72;;;17.90;54.00;;;;;;5016622;28;20035;-63
2023/06/17 03:43:15;;;;;;;4.30;2.40;;;17.90;54.20;;;;;;5045181;28;20547;-63
2023/06/17 03:45:41;;;;;;;4.30;2.65;;;17.90;54.30;;;;;;5029273;28;20063;-63
2023/06/17 03:48:07;;;;;;;3.65;2.90;;;17.90;54.30;;;;;;5044391;28;20060;-62
2023/06/17 03:50:32;;;;;;;3.37;2.57;;;17.80;54.30;;;;;;5031256;28;20739;-63
2023/06/17 03:52:58;;;;;;;4.18;2.75;;;17.80;54.40;;;;;;5041476;28;20079;-62
2023/06/17 03:55:25;;;;;;;4.20;2.53;;;17.80;54.40;;;;;;5020134;28;20040;-63
2023/06/17 03:57:51;;;;;;;4.07;2.55;;;17.80;54.50;;;;;;5035024;28;20222;-63
2023/06/17 04:00:17;;;;;;;3.50;2.45;;;17.80;54.60;;;;;;5051408;28;20056;-63
2023/06/17 04:02:47;;;;;;;3.70;2.60;;;17.80;54.70;;;;;;5025920;28;20607;-62
2023/06/17 04:05:13;;;;;;;3.97;2.78;;;17.80;54.70;;;;;;5034825;28;20166;-63
2023/06/17 04:07:39;;;;;;;4.00;2.90;;;17.80;54.70;;;;;;5032113;28;20037;-63
2023/06/17 04:10:09;;;;;;;4.40;2.58;;;17.80;54.80;;;;;;5037256;28;20097;-62
2023/06/17 04:12:39;;;;;;;4.05;2.63;;;17.90;55.90;;;;;;5015437;28;20047;-63
2023/06/17 04:15:08;;;;;;;3.30;2.42;;;17.90;55.20;;;;;;5047105;28;20427;-63
2023/06/17 04:17:37;;;;;;;3.47;2.60;;;17.90;55.20;;;;;;5035509;28;20051;-63
2023/06/17 04:20:11;;;;;;;3.50;2.60;;;17.90;55.30;;;;;;5043624;28;20123;-62
2023/06/17 04:22:39;;;;;;;4.32;2.60;;;17.90;55.00;;;;;;5030920;28;20059;-63
2023/06/17 04:25:05;;;;;;;4.55;2.67;;;17.90;55.20;;;;;;5033528;28;20076;-63
2023/06/17 04:27:31;;;;;;;4.43;2.60;;;17.90;55.70;;;;;;5014997;28;20496;-63
2023/06/17 04:29:57;;;;;;;4.13;2.63;;;17.90;55.40;;;;;;5045806;28;20111;-63
2023/06/17 04:32:26;;;;;;;6.10;2.83;;;17.90;55.40;;;;;;5048404;28;20289;-63
2023/06/17 04:34:53;;;;;;;4.80;2.67;;;17.90;55.60;;;;;;5039205;28;20360;-63
2023/06/17 04:37:20;;;;;;;4.40;2.72;;;17.90;55.40;;;;;;5049546;28;20048;-63
2023/06/17 04:39:45;;;;;;;4.97;2.78;;;17.90;55.30;;;;;;5030300;28;20421;-63
2023/06/17 04:42:16;;;;;;;4.87;2.80;;;18.00;55.50;;;;;;5022467;28;20029;-63
2023/06/17 04:44:43;;;;;;;4.40;2.80;;;18.00;55.60;;;;;;5051363;28;20106;-62
2023/06/17 04:47:10;;;;;;;4.85;2.78;;;18.10;55.70;;;;;;5035213;28;20246;-62
2023/06/17 04:49:41;;;;;;;4.18;2.88;;;18.10;55.70;;;;;;5044276;28;20507;-63
2023/06/17 04:52:10;;;;;;;4.20;2.80;;;18.20;55.70;;;;;;5054350;28;20046;-62
2023/06/17 04:54:37;;;;;;;4.20;3.15;;;18.20;55.80;;;;;;5024806;28;20036;-63
2023/06/17 04:57:04;;;;;;;4.70;2.80;;;18.20;55.70;;;;;;5010763;28;20767;-62
2023/06/17 04:59:30;;;;;;;4.57;2.72;;;18.30;55.70;;;;;;5049468;28;20111;-63
2023/06/17 05:01:56;;;;;;;4.67;2.77;;;18.30;55.80;;;;;;5007773;28;20058;-63
2023/06/17 05:04:21;;;;;;;4.55;2.92;;;18.40;55.80;;;;;;5039542;28;20453;-63
2023/06/17 05:06:47;;;;;;;4.38;2.90;;;18.40;55.60;;;;;;5031913;28;20476;-63
2023/06/17 05:09:13;;;;;;;5.67;2.97;;;18.40;55.70;;;;;;5033513;28;20113;-63
2023/06/17 05:11:40;;;;;;;3.78;2.78;;;18.50;55.90;;;;;;5033306;28;20029;-62
2023/06/17 05:14:06;;;;;;;3.92;3.00;;;18.60;56.00;;;;;;5015688;28;20254;-62
2023/06/17 05:16:32;;;;;;;4.25;3.30;;;18.60;56.00;;;;;;5036805;28;20077;-63
2023/06/17 05:18:58;;;;;;;7.10;3.10;;;18.70;56.00;;;;;;5033699;28;20519;-63
2023/06/17 05:21:24;;;;;;;3.80;2.97;;;18.70;56.10;;;;;;5046153;28;20041;-63
2023/06/17 05:23:50;;;;;;;5.60;2.97;;;18.80;56.10;;;;;;5030261;28;20807;-63
2023/06/17 05:26:16;;;;;;;4.35;3.10;;;18.80;56.30;;;;;;5029734;28;20029;-63
2023/06/17 05:28:42;;;;;;;4.57;3.10;;;18.90;56.40;;;;;;5018624;28;20307;-62
2023/06/17 05:31:09;;;;;;;3.60;2.92;;;18.90;56.40;;;;;;5049953;28;20053;-63
2023/06/17 05:33:35;;;;;;;5.07;3.22;;;19.00;56.40;;;;;;5036662;28;20100;-62
2023/06/17 05:36:00;;;;;;;4.80;3.10;;;19.10;56.30;;;;;;5043103;28;20672;-63
2023/06/17 05:38:27;;;;;;;4.68;3.00;;;19.20;56.40;;;;;;5028558;28;20024;-62
2023/06/17 05:40:52;;;;;;;4.03;2.88;;;19.20;56.50;;;;;;5028637;28;20158;-63
2023/06/17 05:43:18;;;;;;;4.97;3.07;;;19.30;56.50;;;;;;5014681;28;20036;-62
2023/06/17 05:45:44;;;;;;;3.80;3.00;;;19.40;56.50;;;;;;5046219;28;20090;-62
2023/06/17 05:48:10;;;;;;;4.25;2.92;;;19.50;56.30;;;;;;5029963;28;20411;-63
2023/06/17 05:50:36;;;;;;;4.30;2.83;;;19.50;56.30;;;;;;5042851;28;20650;-62
2023/06/17 05:53:01;;;;;;;3.50;2.55;;;19.60;56.30;;;;;;5048180;28;20090;-63
2023/06/17 05:55:27;;;;;;;4.40;3.10;;;19.70;56.30;;;;;;5026378;28;21801;-62
2023/06/17 05:57:54;;;;;;;4.43;2.92;;;19.80;56.40;;;;;;5017810;28;20423;-63
2023/06/17 06:00:22;;;;;;;3.10;2.47;;;19.90;56.40;;;;;;5014125;28;20245;-63
2023/06/17 06:02:48;;;;;;;4.28;2.75;;;20.00;56.30;;;;;;5041380;28;20038;-63
2023/06/17 06:05:14;;;;;;;4.63;3.00;;;20.20;56.40;;;;;;5020225;28;20433;-63
2023/06/17 06:07:41;;;;;;;4.90;3.00;;;20.30;56.20;;;;;;5044009;28;20075;-63
2023/06/17 06:10:08;;;;;;;5.65;2.70;;;20.40;56.10;;;;;;5017530;28;20071;-62
2023/06/17 06:12:33;;;;;;;3.70;2.57;;;20.60;55.90;;;;;;5032989;28;20436;-63
2023/06/17 06:14:59;;;;;;;4.60;2.72;;;20.70;55.90;;;;;;5015199;28;20094;-63
2023/06/17 06:17:25;;;;;;;4.20;2.60;;;20.70;55.90;;;;;;5041238;28;20082;-63
2023/06/17 06:19:51;;;;;;;4.88;2.80;;;20.90;55.90;;;;;;5014549;28;20167;-62
2023/06/17 06:22:18;;;;;;;4.75;2.63;;;21.00;55.80;;;;;;5041720;28;20025;-63
2023/06/17 06:24:44;;;;;;;3.80;2.85;;;21.10;55.80;;;;;;5027704;28;20062;-63
2023/06/17 06:27:10;;;;;;;4.30;2.90;;;21.20;56.30;;;;;;5033386;28;20680;-64
2023/06/17 06:29:35;;;;;;;4.07;2.73;;;21.20;55.70;;;;;;5009038;28;25103;-63
2023/06/17 06:32:02;;;;;;;4.90;2.78;;;21.40;55.80;;;;;;5043484;28;20256;-63
2023/06/17 06:34:28;;;;;;;4.33;2.93;;;21.50;55.80;;;;;;5027198;28;20028;-63
2023/06/17 06:36:56;;;;;;;4.45;2.80;;;21.50;55.70;;;;;;5027863;28;20508;-63
2023/06/17 06:39:22;;;;;;;5.32;2.83;;;21.60;55.60;;;;;;5042819;28;20266;-63
2023/06/17 06:41:48;;;;;;;7.03;3.10;;;21.70;55.40;;;;;;5019411;28;20033;-63
2023/06/17 06:44:14;;;;;;;3.50;2.60;;;21.70;55.20;;;;;;5029236;28;20526;-63
2023/06/17 06:46:40;;;;;;;4.53;2.90;;;21.80;55.20;;;;;;4991784;28;20108;-63
2023/06/17 06:49:05;;;;;;;4.20;2.77;;;21.90;55.20;;;;;;5039763;28;20025;-64
2023/06/17 06:51:31;;;;;;;4.40;2.83;;;21.90;55.10;;;;;;5023928;28;20815;-63
2023/06/17 06:53:57;;;;;;;4.55;2.78;;;22.00;55.20;;;;;;5041037;28;20028;-63
2023/06/17 06:56:24;;;;;;;4.00;2.80;;;22.10;55.20;;;;;;5020292;28;20164;-63
2023/06/17 06:58:49;;;;;;;5.65;2.70;;;22.20;55.00;;;;;;5035206;28;20044;-63
2023/06/17 07:01:15;;;;;;;4.70;2.65;;;22.30;54.80;;;;;;5011782;28;20028;-62
2023/06/17 07:03:41;;;;;;;4.70;2.78;;;22.40;54.70;;;;;;5037353;28;20044;-62
2023/06/17 07:06:07;;;;;;;3.53;2.60;;;22.40;54.50;;;;;;5027792;28;20527;-64
2023/06/17 07:08:34;;;;;;;4.03;2.83;;;22.50;54.50;;;;;;5023111;28;20535;-62
2023/06/17 07:10:59;;;;;;;3.90;2.78;;;22.60;54.40;;;;;;5023803;28;20132;-63
2023/06/17 07:13:25;;;;;;;4.57;2.60;;;22.70;54.30;;;;;;5034153;28;20468;-62
2023/06/17 07:15:51;;;;;;;4.20;2.70;;;22.80;54.20;;;;;;5039346;28;20760;-64
2023/06/17 07:18:17;;;;;;;3.20;2.53;;;22.80;54.20;;;;;;5020700;28;20221;-62
2023/06/17 07:20:42;;;;;;;3.00;2.50;;;23.00;54.20;;;;;;5042086;28;20025;-63
2023/06/17 07:23:08;;;;;;;3.40;2.50;;;23.00;54.10;;;;;;5029349;28;20040;-63
2023/06/17 07:25:34;;;;;;;3.40;2.90;;;23.20;54.10;;;;;;5052566;28;20044;-62
2023/06/17 07:28:00;;;;;;;4.20;2.63;;;23.20;53.70;;;;;;5016274;28;20126;-63
2023/06/17 07:30:27;;;;;;;4.73;2.70;;;23.40;53.70;;;;;;5038723;28;20511;-62
2023/06/17 07:32:53;;;;;;;4.07;2.42;;;23.50;53.50;;;;;;5012794;28;20069;-63
2023/06/17 07:35:19;;;;;;;3.28;2.35;;;23.60;53.30;;;;;;5032931;28;20131;-63
2023/06/17 07:37:45;;;;;;;3.20;2.55;;;23.70;53.30;;;;;;5048942;28;20491;-63
2023/06/17 07:40:11;;;;;;;4.33;2.73;;;23.90;53.30;;;;;;5025900;28;20229;-63
2023/06/17 07:42:41;;;;;;;3.58;2.38;;;24.00;53.00;;;;;;5030616;28;20123;-62
2023/06/17 07:45:07;;;;;;;3.33;2.28;;;24.20;52.90;;;;;;5026649;28;20674;-63
2023/06/17 07:47:33;;;;;;;5.53;2.53;;;24.30;52.80;;;;;;5011954;28;20070;-63
2023/06/17 07:49:59;;;;;;;3.40;2.70;;;24.50;52.80;;;;;;5044633;28;20563;-63
2023/06/17 07:52:24;;;;;;;3.08;2.30;;;24.60;52.60;;;;;;5040086;28;20060;-63
2023/06/17 07:54:51;;;;;;;2.63;2.40;;;24.80;52.50;;;;;;5030363;28;20329;-63
2023/06/17 07:57:17;;;;;;;4.00;2.65;;;25.00;52.30;;;;;;5036986;28;20453;-63
2023/06/17 07:59:43;;;;;;;3.42;2.60;;;25.10;52.40;;;;;;5018201;28;20025;-63
2023/06/17 08:02:09;;;;;;;3.83;2.50;;;25.30;52.50;;;;;;5041785;28;20032;-62
2023/06/17 08:04:35;;;;;;;2.72;2.45;;;25.50;52.60;;;;;;5010887;28;20051;-63
2023/06/17 08:07:01;;;;;;;3.97;2.60;;;25.80;52.40;;;;;;5036853;28;20599;-63
2023/06/17 08:09:27;;;;;;;3.58;2.55;;;26.10;52.20;;;;;;5030114;28;20517;-62
2023/06/17 08:11:53;;;;;;;3.53;2.50;;;26.30;51.80;;;;;;5044088;28;20024;-63
2023/06/17 08:14:19;;;;;;;2.85;2.38;;;26.60;51.80;;;;;;5030846;28;21562;-63
2023/06/17 08:16:45;;;;;;;3.20;2.50;;;26.80;52.00;;;;;;5031547;28;20602;-63
2023/06/17 08:19:12;;;;;;;3.80;2.53;;;27.20;52.50;;;;;;5012344;28;20138;-62
2023/06/17 08:21:38;;;;;;;3.38;2.65;;;27.60;52.70;;;;;;5053578;28;20028;-63
2023/06/17 08:24:21;;;;;;;3.88;2.70;;;28.00;52.30;;;;;;5008737;28;20239;-63
2023/06/17 08:26:48;;;;;;;2.90;2.50;;;28.50;50.20;;;;;;5040834;28;20067;-63
2023/06/17 08:29:15;;;;;;;2.80;2.50;;;28.90;51.20;;;;;;5028386;28;20147;-63
2023/06/17 08:31:45;;;;;;;2.58;2.25;;;29.30;50.90;;;;;;5031096;28;20123;-64
2023/06/17 08:34:12;;;;;;;3.47;2.65;;;29.80;50.20;;;;;;5014305;28;20606;-64
2023/06/17 08:36:39;;;;;;;2.75;2.50;;;30.20;50.10;;;;;;5045207;28;20036;-63
2023/06/17 08:39:05;;;;;;;3.00;2.60;;;30.60;49.40;;;;;;5022531;28;20214;-63
2023/06/17 08:41:36;;;;;;;3.05;2.70;;;31.00;48.80;;;;;;5044937;28;20087;-63
2023/06/17 08:44:04;;;;;;;2.65;2.40;;;31.30;48.10;;;;;;5043300;28;20233;-63
2023/06/17 08:46:31;;;;;;;3.35;2.70;;;31.60;47.70;;;;;;5019415;28;20032;-63
2023/06/17 08:48:58;;;;;;;3.90;2.67;;;32.00;46.70;;;;;;5015469;28;21214;-63
2023/06/17 08:51:24;;;;;;;3.30;2.55;;;32.30;46.30;;;;;;5051946;28;20152;-63
2023/06/17 08:53:52;;;;;;;3.67;2.90;;;32.60;46.20;;;;;;5038141;28;20572;-64
2023/06/17 08:56:18;;;;;;;3.28;2.60;;;32.90;45.40;;;;;;5032555;28;21142;-63
2023/06/17 08:58:44;;;;;;;4.50;2.75;;;33.20;44.70;;;;;;5043849;28;20039;-64
2023/06/17 09:01:14;;;;;;;3.80;2.97;;;33.40;44.20;;;;;;5028468;28;20149;-63
2023/06/17 09:03:44;;;;;;;3.30;2.97;;;33.80;43.50;;;;;;5028739;28;20071;-64
2023/06/17 09:06:23;;;;;;;3.30;3.00;;;34.00;43.30;;;;;;5008734;28;20608;-63
2023/06/17 09:08:50;;;;;;;4.32;2.55;;;34.30;41.30;;;;;;5042217;28;20028;-64
2023/06/17 09:11:17;;;;;;;3.10;2.80;;;34.50;42.30;;;;;;5031810;28;20063;-62
2023/06/17 09:13:50;;;;;;;3.10;2.80;;;34.70;41.70;;;;;;5046677;28;20169;-64
2023/06/17 09:16:26;;;;;;;3.03;2.72;;;35.00;41.00;;;;;;5033842;28;20559;-63
2023/06/17 09:18:56;;;;;;;3.22;2.80;;;35.20;40.40;;;;;;5023852;28;20119;-63
2023/06/17 09:21:23;;;;;;;3.63;2.90;;;35.40;39.90;;;;;;5008846;28;20414;-63
2023/06/17 09:23:59;;;;;;;3.40;3.00;;;35.60;40.00;;;;;;5034464;28;20028;-64
2023/06/17 09:26:33;;;;;;;4.17;2.70;;;35.80;38.40;;;;;;5032196;28;20020;-62
2023/06/17 09:29:05;;;;;;;3.67;3.15;;;35.90;38.30;;;;;;5045464;28;20520;-62
2023/06/17 09:31:31;;;;;;;3.13;2.83;;;36.10;38.10;;;;;;5028177;28;20228;-63
2023/06/17 09:33:58;;;;;;;3.53;3.22;;;36.20;38.30;;;;;;5035414;28;20397;-64
2023/06/17 09:36:25;;;;;;;3.30;3.00;;;36.40;38.30;;;;;;5015993;28;20718;-63
2023/06/17 09:38:52;;;;;;;3.40;3.10;;;36.50;37.50;;;;;;5041136;28;20674;-64
2023/06/17 09:41:20;;;;;;;4.25;3.20;;;36.60;37.10;;;;;;5036396;28;20630;-63
2023/06/17 09:43:52;;;;;;;3.30;3.00;;;36.80;36.60;;;;;;5031064;28;20529;-64
2023/06/17 09:46:29;;;;;;;3.28;2.92;;;36.90;35.50;;;;;;5036933;28;20040;-62
2023/06/17 09:48:57;;;;;;;3.85;3.30;;;37.00;35.90;;;;;;5016736;28;20687;-63
2023/06/17 09:51:23;;;;;;;3.07;2.77;;;37.10;36.20;;;;;;5001908;28;20471;-63
2023/06/17 09:53:54;;;;;;;3.33;3.03;;;37.20;35.70;;;;;;5045373;28;20582;-64
2023/06/17 09:56:20;;;;;;;4.15;2.95;;;37.30;35.00;;;;;;5036102;28;20140;-63
2023/06/17 09:58:47;;;;;;;4.53;3.45;;;37.40;36.00;;;;;;5026493;28;20036;-64
2023/06/17 10:01:13;;;;;;;6.40;3.08;;;37.60;35.00;;;;;;5041946;28;20210;-63
2023/06/17 10:03:40;;;;;;;3.10;2.83;;;37.70;34.90;;;;;;5027554;28;20796;-63
2023/06/17 10:06:10;;;;;;;3.75;3.45;;;37.90;34.50;;;;;;5029111;28;20497;-63
2023/06/17 10:08:39;;;;;;;3.40;3.10;;;38.00;33.90;;;;;;5017128;28;20016;-64
2023/06/17 10:11:04;;;;;;;3.67;3.38;;;38.10;33.70;;;;;;5031687;28;20476;-63
2023/06/17 10:13:38;;;;;;;4.10;3.13;;;38.20;33.60;;;;;;5027284;28;20096;-63
2023/06/17 10:16:11;;;;;;;5.00;3.10;;;38.40;32.60;;;;;;5042721;28;20285;-64
2023/06/17 10:18:39;;;;;;;5.18;2.88;;;38.50;32.90;;;;;;5011156;28;20277;-63
2023/06/17 10:21:09;;;;;;;3.88;3.50;;;38.60;32.70;;;;;;5026464;28;20036;-64
2023/06/17 10:23:37;;;;;;;3.38;3.08;;;38.70;31.90;;;;;;5014316;28;20028;-63
2023/06/17 10:26:07;;;;;;;4.18;3.03;;;38.90;32.20;;;;;;5044206;28;20579;-63
2023/06/17 10:28:44;;;;;;;4.60;2.70;;;38.90;31.40;;;;;;5029036;28;20031;-63
2023/06/17 10:31:30;;;;;;;4.68;3.22;;;39.00;31.00;;;;;;5044314;28;20181;-63
2023/06/17 10:34:01;;;;;;;3.80;3.50;;;39.00;30.60;;;;;;5037167;28;20017;-64
2023/06/17 10:36:28;;;;;;;3.70;3.33;;;39.10;31.40;;;;;;4996926;28;20029;-64
2023/06/17 10:39:07;;;;;;;3.85;3.35;;;39.30;31.00;;;;;;5019346;28;20053;-63
2023/06/17 10:41:42;;;;;;;3.50;3.20;;;39.30;29.90;;;;;;5026919;28;21044;-63
2023/06/17 10:44:33;;;;;;;3.30;3.00;;;39.20;30.20;;;;;;5004213;28;20040;-63
2023/06/17 10:46:59;;;;;;;3.47;3.17;;;39.30;29.70;;;;;;5043314;28;20098;-63
2023/06/17 10:49:25;;;;;;;3.47;3.15;;;39.20;30.00;;;;;;5025285;28;20028;-63
2023/06/17 10:51:55;;;;;;;3.58;3.15;;;39.20;29.80;;;;;;5048450;28;20033;-63
2023/06/17 10:54:32;;;;;;;3.50;3.20;;;39.20;29.70;;;;;;5014335;28;20036;-63
2023/06/17 10:57:04;;;;;;;3.97;3.00;;;39.20;29.20;;;;;;5038989;28;20064;-64
2023/06/17 10:59:32;;;;;;;4.45;3.40;;;39.30;29.30;;;;;;5018717;28;20025;-64
2023/06/17 11:02:07;;;;;;;3.60;3.30;;;39.30;29.60;;;;;;5034407;28;20232;-63
2023/06/17 11:04:40;;;;;;;3.50;3.20;;;39.40;29.30;;;;;;5018747;28;20053;-64
2023/06/17 11:07:07;;;;;;;3.73;3.07;;;39.50;29.10;;;;;;5044414;28;20041;-63
2023/06/17 11:09:34;;;;;;;3.00;2.80;;;39.60;29.40;;;;;;4999008;28;20029;-64
2023/06/17 11:12:02;;;;;;;3.20;2.90;;;39.60;28.90;;;;;;5046921;28;20556;-63
2023/06/17 11:14:32;;;;;;;3.65;2.72;;;39.60;28.60;;;;;;5021237;28;20044;-63
2023/06/17 11:16:58;;;;;;;2.83;2.60;;;39.60;28.60;;;;;;5047050;28;20245;-63
2023/06/17 11:19:24;;;;;;;3.07;2.70;;;39.70;28.60;;;;;;5033076;28;20032;-63
2023/06/17 11:21:57;;;;;;;3.67;3.38;;;39.70;28.10;;;;;;5026548;28;20184;-63
2023/06/17 11:24:23;;;;;;;3.25;2.95;;;39.70;27.50;;;;;;4997162;28;20052;-64
2023/06/17 11:26:50;;;;;;;3.28;3.00;;;39.70;28.00;;;;;;5031334;28;20484;-63
2023/06/17 11:29:18;;;;;;;3.42;3.10;;;39.80;28.40;;;;;;5030862;28;20031;-63
2023/06/17 11:31:43;;;;;;;3.40;3.00;;;39.90;28.00;;;;;;5026955;28;20518;-63
2023/06/17 11:34:11;;;;;;;2.97;2.78;;;40.00;28.00;;;;;;5046282;28;20031;-64
2023/06/17 11:36:37;;;;;;;3.70;2.95;;;40.10;27.70;;;;;;5020865;28;20028;-64
2023/06/17 11:39:04;;;;;;;3.23;2.93;;;40.20;27.40;;;;;;5026630;28;21935;-63
2023/06/17 11:41:31;;;;;;;3.30;3.00;;;40.20;27.10;;;;;;4997322;28;20036;-64
2023/06/17 11:43:57;;;;;;;3.30;3.00;;;40.20;27.10;;;;;;5041493;28;20222;-64
2023/06/17 11:46:24;;;;;;;3.80;3.08;;;40.30;27.10;;;;;;5032240;28;20032;-65
2023/06/17 11:48:50;;;;;;;4.68;3.28;;;40.40;27.20;;;;;;5038643;28;20029;-63
2023/06/17 11:51:17;;;;;;;3.20;2.90;;;40.40;26.90;;;;;;5021897;28;20295;-63
2023/06/17 11:53:47;;;;;;;4.07;2.90;;;40.40;26.90;;;;;;5041653;28;20112;-64
2023/06/17 11:56:20;;;;;;;3.47;3.13;;;40.40;26.40;;;;;;5007939;28;20159;-62
2023/06/17 11:58:46;;;;;;;3.25;2.95;;;40.50;26.60;;;;;;5046167;28;20021;-64
2023/06/17 12:01:13;;;;;;;3.45;3.17;;;40.70;27.00;;;;;;5043003;28;20066;-63
2023/06/17 12:03:44;;;;;;;3.23;2.93;;;40.80;26.80;;;;;;5035430;28;20352;-63
2023/06/17 12:06:20;;;;;;;3.15;2.85;;;40.90;26.70;;;;;;5026099;28;20252;-63
2023/06/17 12:08:58;;;;;;;3.70;3.40;;;41.10;26.50;;;;;;5037776;28;20104;-64
2023/06/17 12:11:31;;;;;;;3.25;2.95;;;41.10;26.20;;;;;;5017447;28;20536;-63
2023/06/17 12:14:00;;;;;;;3.53;3.22;;;41.20;26.40;;;;;;5025207;28;20414;-64
2023/06/17 12:16:33;;;;;;;2.90;2.60;;;41.20;26.20;;;;;;5026382;28;20396;-63
2023/06/17 12:18:59;;;;;;;3.15;2.90;;;41.10;26.10;;;;;;5035177;28;20172;-63
2023/06/17 12:21:25;;;;;;;2.70;2.50;;;40.90;25.90;;;;;;5024930;28;20033;-64
2023/06/17 12:23:53;;;;;;;3.65;3.03;;;40.80;25.90;;;;;;5045771;28;20541;-62
2023/06/17 12:26:25;;;;;;;3.05;2.78;;;40.60;25.70;;;;;;5016562;28;20037;-64
2023/06/17 12:28:54;;;;;;;3.80;3.50;;;40.40;25.70;;;;;;5044668;28;20388;-62
2023/06/17 12:31:21;;;;;;;4.85;2.85;;;40.20;26.00;;;;;;5025005;28;20025;-63
2023/06/17 12:33:47;;;;;;;3.00;2.80;;;40.20;26.40;;;;;;5028828;28;20490;-63
2023/06/17 12:36:14;;;;;;;3.25;2.88;;;40.20;26.30;;;;;;5042123;28;20090;-64
2023/06/17 12:38:40;;;;;;;3.37;2.90;;;40.20;26.20;;;;;;5032693;28;20317;-63
2023/06/17 12:41:06;;;;;;;3.10;2.78;;;40.10;26.20;;;;;;5033053;28;20039;-63
2023/06/17 12:43:32;;;;;;;3.40;3.10;;;40.00;26.20;;;;;;5009479;28;20041;-63
2023/06/17 12:45:59;;;;;;;3.33;3.03;;;39.90;26.20;;;;;;5038582;28;20522;-63
2023/06/17 12:48:30;;;;;;;3.23;2.93;;;39.90;26.40;;;;;;5011476;28;20751;-63
2023/06/17 12:50:56;;;;;;;3.85;3.13;;;40.00;26.10;;;;;;5039801;28;20086;-63